createdAt,value
2018-12-18T00:00:35.936Z,0
2018-12-18T00:03:47.987Z,0
2018-12-18T00:06:47.156Z,0
2018-12-18T00:09:35.938Z,0
2018-12-18T00:12:35.253Z,0
2018-12-18T00:15:40.701Z,0
2018-12-18T00:18:34.271Z,0
2018-12-18T00:21:36.097Z,0
2018-12-18T00:24:39.731Z,0
2018-12-18T00:27:49.388Z,0
2018-12-18T00:30:56.770Z,0
2018-12-18T00:33:34.671Z,0
2018-12-18T00:36:44.229Z,0
2018-12-18T00:39:36.442Z,0
2018-12-18T00:42:50.169Z,0
2018-12-18T00:45:41.836Z,0
2018-12-18T00:48:34.484Z,0
2018-12-18T00:51:35.615Z,0
2018-12-18T00:54:38.989Z,0
2018-12-18T00:57:44.949Z,0
2018-12-18T01:00:46.023Z,0
2018-12-18T01:03:35.693Z,0
2018-12-18T01:06:50.355Z,0
2018-12-18T01:09:48.254Z,0
2018-12-18T01:12:41.166Z,0
2018-12-18T01:15:41.609Z,0
2018-12-18T01:18:44.939Z,0
2018-12-18T01:21:51.586Z,0
2018-12-18T01:24:34.800Z,0
2018-12-18T01:27:45.259Z,0
2018-12-18T01:30:35.861Z,0
2018-12-18T01:33:35.679Z,0
2018-12-18T01:36:35.288Z,0
2018-12-18T01:39:45.550Z,0
2018-12-18T01:42:47.425Z,0
2018-12-18T01:45:36.900Z,0
2018-12-18T01:48:41.364Z,0
2018-12-18T01:51:45.891Z,0
2018-12-18T01:54:44.685Z,0
2018-12-18T01:58:13.022Z,0
2018-12-18T02:00:47.860Z,0
2018-12-18T02:03:35.386Z,0
2018-12-18T02:06:40.134Z,0
2018-12-18T02:09:42.926Z,0
2018-12-18T02:12:51.365Z,0
2018-12-18T02:16:13.861Z,0
2018-12-18T02:18:33.333Z,0
2018-12-18T02:21:54.217Z,0
2018-12-18T02:24:42.379Z,0
2018-12-18T02:27:39.462Z,0
2018-12-18T02:30:46.475Z,0
2018-12-18T02:33:39.912Z,0
2018-12-18T02:36:34.230Z,0
2018-12-18T02:39:34.496Z,0
2018-12-18T02:42:50.350Z,0
2018-12-18T02:45:33.745Z,0
2018-12-18T02:48:34.418Z,0
2018-12-18T02:51:34.366Z,0
2018-12-18T02:54:44.823Z,0
2018-12-18T02:57:42.800Z,0
2018-12-18T03:00:48.693Z,0
2018-12-18T03:03:39.870Z,0
2018-12-18T03:06:32.673Z,0
2018-12-18T03:09:33.748Z,0
2018-12-18T03:12:34.967Z,0
2018-12-18T03:15:33.380Z,0
2018-12-18T03:18:34.016Z,0
2018-12-18T03:21:37.027Z,0
2018-12-18T03:24:33.956Z,0
2018-12-18T03:27:33.883Z,0
2018-12-18T03:30:34.002Z,0
2018-12-18T03:33:42.689Z,0
2018-12-18T03:36:34.351Z,0
2018-12-18T03:39:44.097Z,0
2018-12-18T03:42:33.740Z,0
2018-12-18T03:45:39.904Z,0
2018-12-18T03:48:35.435Z,0
2018-12-18T03:51:44.676Z,0
2018-12-18T03:54:46.522Z,0
2018-12-18T03:57:33.975Z,0
2018-12-18T04:00:48.331Z,0
2018-12-18T04:03:44.673Z,0
2018-12-18T04:06:55.022Z,0
2018-12-18T04:09:41.096Z,0
2018-12-18T04:12:34.196Z,0
2018-12-18T04:15:41.277Z,0
2018-12-18T04:18:50.525Z,0
2018-12-18T04:21:39.720Z,0
2018-12-18T04:24:49.353Z,0
2018-12-18T04:27:34.862Z,0
2018-12-18T04:30:43.351Z,0
2018-12-18T04:33:34.825Z,0
2018-12-18T04:36:57.175Z,0
2018-12-18T04:39:38.315Z,0
2018-12-18T04:42:46.540Z,0
2018-12-18T04:45:34.208Z,0
2018-12-18T04:48:50.615Z,0
2018-12-18T04:51:43.998Z,0
2018-12-18T04:54:34.186Z,0
2018-12-18T04:57:55.976Z,0
2018-12-18T05:00:53.173Z,0
2018-12-18T05:03:40.766Z,0
2018-12-18T05:06:40.826Z,0
2018-12-18T05:09:43.303Z,0
2018-12-18T05:12:44.455Z,0
2018-12-18T05:16:03.447Z,0
2018-12-18T05:19:30.560Z,0
2018-12-18T05:21:51.889Z,0
2018-12-18T05:24:39.413Z,0
2018-12-18T05:27:46.238Z,0
2018-12-18T05:31:36.741Z,0
2018-12-18T05:33:44.695Z,0
2018-12-18T05:36:35.449Z,0
2018-12-18T05:39:34.389Z,0
2018-12-18T05:42:48.998Z,0
2018-12-18T05:45:39.024Z,0
2018-12-18T05:48:33.836Z,0
2018-12-18T05:51:34.062Z,0
2018-12-18T05:54:34.717Z,0
2018-12-18T05:57:34.327Z,0
2018-12-18T06:00:45.616Z,0
2018-12-18T06:03:51.227Z,0
2018-12-18T06:06:40.190Z,0
2018-12-18T06:09:39.612Z,0
2018-12-18T06:12:34.589Z,0
2018-12-18T06:15:36.927Z,0
2018-12-18T06:18:38.463Z,0
2018-12-18T06:21:34.747Z,0
2018-12-18T06:24:39.885Z,0
2018-12-18T06:27:32.660Z,0
2018-12-18T06:30:33.601Z,0
2018-12-18T06:33:34.355Z,0
2018-12-18T06:36:57.850Z,0
2018-12-18T06:39:50.600Z,0
2018-12-18T06:42:37.237Z,0
2018-12-18T06:45:46.737Z,0
2018-12-18T06:48:38.149Z,1
2018-12-18T06:51:40.849Z,2
2018-12-18T06:55:12.926Z,3
2018-12-18T06:57:39.665Z,6
2018-12-18T07:00:40.713Z,8
2018-12-18T07:03:34.055Z,13
2018-12-18T07:06:38.590Z,22
2018-12-18T07:09:50.224Z,36
2018-12-18T07:12:55.621Z,56
2018-12-18T07:15:50.544Z,82
2018-12-18T07:18:47.783Z,108
2018-12-18T07:21:33.141Z,129
2018-12-18T07:24:34.245Z,154
2018-12-18T07:27:55.464Z,172
2018-12-18T07:30:39.670Z,194
2018-12-18T07:33:53.985Z,218
2018-12-18T07:36:38.787Z,257
2018-12-18T07:39:43.771Z,288
2018-12-18T07:42:42.717Z,317
2018-12-18T07:45:36.389Z,336
2018-12-18T07:48:34.364Z,397
2018-12-18T07:51:49.091Z,453
2018-12-18T07:54:49.434Z,511
2018-12-18T07:57:34.218Z,585
2018-12-18T08:00:40.100Z,658
2018-12-18T08:03:51.119Z,902
2018-12-18T08:06:34.463Z,1029
2018-12-18T08:09:44.408Z,1003
2018-12-18T08:12:55.974Z,1143
2018-12-18T08:15:35.251Z,1212
2018-12-18T08:18:50.431Z,1093
2018-12-18T08:21:51.340Z,1242
2018-12-18T08:24:51.672Z,1384
2018-12-18T08:27:46.364Z,1695
2018-12-18T08:30:39.720Z,1708
2018-12-18T08:33:44.038Z,1750
2018-12-18T08:37:03.252Z,2012
2018-12-18T08:39:37.018Z,2310
2018-12-18T08:42:55.207Z,2509
2018-12-18T08:45:41.278Z,3049
2018-12-18T08:48:45.474Z,3516
2018-12-18T08:52:00.667Z,3742
2018-12-18T08:55:02.325Z,3915
2018-12-18T08:57:56.182Z,3919
2018-12-18T09:00:43.986Z,3357
2018-12-18T09:04:00.653Z,3227
2018-12-18T09:07:03.030Z,3228
2018-12-18T09:09:47.867Z,3198
2018-12-18T09:12:45.400Z,3056
2018-12-18T09:17:22.400Z,3553
2018-12-18T09:19:21.718Z,4204
2018-12-18T09:21:59.480Z,4669
2018-12-18T09:24:45.126Z,4575
2018-12-18T09:27:42.442Z,3842
2018-12-18T09:31:02.716Z,2904
2018-12-18T09:33:34.229Z,2427
2018-12-18T09:36:50.225Z,2076
2018-12-18T09:40:08.134Z,3007
2018-12-18T09:44:51.760Z,3584
2018-12-18T09:45:44.188Z,2907
2018-12-18T09:48:34.101Z,2793
2018-12-18T09:51:56.235Z,2935
2018-12-18T09:54:39.362Z,3331
2018-12-18T09:58:18.273Z,4100
2018-12-18T10:00:57.940Z,5408
2018-12-18T10:03:54.866Z,5801
2018-12-18T10:08:04.543Z,4448
2018-12-18T10:10:35.817Z,2986
2018-12-18T10:13:24.331Z,2948
2018-12-18T10:15:56.391Z,3649
2018-12-18T10:18:41.815Z,5130
2018-12-18T10:21:34.522Z,5408
2018-12-18T10:24:36.875Z,7005
2018-12-18T10:27:45.275Z,15212
2018-12-18T10:30:41.362Z,13549
2018-12-18T10:33:46.843Z,10349
2018-12-18T10:36:35.204Z,9556
2018-12-18T10:39:40.350Z,13828
2018-12-18T10:42:39.630Z,6791
2018-12-18T10:45:47.325Z,7080
2018-12-18T10:48:43.255Z,4600
2018-12-18T10:51:36.632Z,6738
2018-12-18T10:54:35.202Z,6822
2018-12-18T10:57:42.878Z,9850
2018-12-18T11:02:43.298Z,27176
2018-12-18T11:03:34.878Z,5610
2018-12-18T11:06:43.999Z,4886
2018-12-18T11:09:51.948Z,4258
2018-12-18T11:13:25.593Z,4768
2018-12-18T11:15:43.061Z,4942
2018-12-18T11:18:45.314Z,4805
2018-12-18T11:21:34.879Z,9816
2018-12-18T11:24:41.448Z,16346
2018-12-18T11:27:34.763Z,22902
2018-12-18T11:30:39.969Z,10654
2018-12-18T11:33:40.025Z,7178
2018-12-18T11:36:35.000Z,8048
2018-12-18T11:39:42.418Z,8647
2018-12-18T11:42:46.087Z,7680
2018-12-18T11:45:39.185Z,8857
2018-12-18T11:48:36.295Z,9001
2018-12-18T11:51:49.851Z,10605
2018-12-18T11:54:45.183Z,9746
2018-12-18T11:57:34.861Z,7862
2018-12-18T12:00:46.115Z,6213
2018-12-18T12:03:35.385Z,4952
2018-12-18T12:06:42.170Z,6837
2018-12-18T12:09:39.936Z,7864
2018-12-18T12:12:43.256Z,7473
2018-12-18T12:15:56.384Z,8001
2018-12-18T12:18:34.787Z,8008
2018-12-18T12:21:38.323Z,7212
2018-12-18T12:24:47.240Z,5952
2018-12-18T12:27:41.500Z,5668
2018-12-18T12:30:32.428Z,6301
2018-12-18T12:33:31.903Z,6130
2018-12-18T12:36:32.550Z,5922
2018-12-18T12:39:32.343Z,6204
2018-12-18T12:42:32.049Z,6162
2018-12-18T12:45:32.077Z,6217
2018-12-18T12:49:00.161Z,5974
2018-12-18T12:51:31.758Z,5600
2018-12-18T12:54:31.436Z,5205
2018-12-18T12:57:32.050Z,5632
2018-12-18T13:00:31.848Z,5605
2018-12-18T13:03:33.465Z,5087
2018-12-18T13:06:38.986Z,4979
2018-12-18T13:09:31.643Z,4869
2018-12-18T13:12:32.109Z,4603
2018-12-18T13:15:33.114Z,5011
2018-12-18T13:18:31.946Z,4346
2018-12-18T13:21:31.888Z,4297
2018-12-18T13:24:31.509Z,4628
2018-12-18T13:27:32.020Z,4612
2018-12-18T13:30:31.852Z,4558
2018-12-18T13:33:32.815Z,4586
2018-12-18T13:36:31.845Z,4432
2018-12-18T13:39:31.512Z,4111
2018-12-18T13:42:32.335Z,3888
2018-12-18T13:45:31.881Z,3558
2018-12-18T13:48:32.488Z,3264
2018-12-18T13:51:35.303Z,2765
2018-12-18T13:54:32.157Z,2732
2018-12-18T13:57:36.558Z,2762
2018-12-18T14:00:32.022Z,2713
2018-12-18T14:03:31.949Z,2525
2018-12-18T14:06:31.839Z,2328
2018-12-18T14:09:32.334Z,2367
2018-12-18T14:12:32.131Z,2242
2018-12-18T14:15:31.958Z,2093
2018-12-18T14:18:31.902Z,2039
2018-12-18T14:21:31.534Z,1858
2018-12-18T14:24:32.135Z,1763
2018-12-18T14:27:32.061Z,1817
2018-12-18T14:30:31.895Z,1702
2018-12-18T14:33:31.363Z,1612
2018-12-18T14:36:32.513Z,1618
2018-12-18T14:39:32.496Z,1608
2018-12-18T14:42:32.027Z,1413
2018-12-18T14:45:31.710Z,1251
2018-12-18T14:48:33.890Z,1082
2018-12-18T14:51:31.543Z,938
2018-12-18T14:54:32.693Z,825
2018-12-18T14:57:31.374Z,712
2018-12-18T15:00:31.901Z,624
2018-12-18T15:03:31.732Z,539
2018-12-18T15:06:31.383Z,463
2018-12-18T15:09:32.057Z,392
2018-12-18T15:12:31.390Z,328
2018-12-18T15:15:31.907Z,265
2018-12-18T15:18:31.566Z,211
2018-12-18T15:21:39.067Z,173
2018-12-18T15:24:31.747Z,136
2018-12-18T15:27:32.035Z,110
2018-12-18T15:30:31.578Z,88
2018-12-18T15:33:32.034Z,69
2018-12-18T15:36:31.405Z,53
2018-12-18T15:39:32.037Z,38
2018-12-18T15:42:31.764Z,26
2018-12-18T15:45:31.417Z,17
2018-12-18T15:48:31.932Z,11
2018-12-18T15:51:31.765Z,7
2018-12-18T15:54:31.365Z,4
2018-12-18T15:57:32.061Z,2
2018-12-18T16:00:31.959Z,1
2018-12-18T16:03:31.778Z,1
2018-12-18T16:06:31.440Z,0
2018-12-18T16:09:32.165Z,0
2018-12-18T16:12:32.172Z,0
2018-12-18T16:15:31.793Z,0
2018-12-18T16:18:31.439Z,0
2018-12-18T16:21:32.089Z,0
2018-12-18T16:24:31.965Z,0
2018-12-18T16:27:31.451Z,0
2018-12-18T16:30:36.659Z,0
2018-12-18T16:33:32.132Z,0
2018-12-18T16:36:31.802Z,0
2018-12-18T16:39:31.636Z,2
2018-12-18T16:42:31.283Z,2
2018-12-18T16:45:31.969Z,2
2018-12-18T16:48:31.303Z,2
2018-12-18T16:51:33.316Z,2
2018-12-18T16:54:32.178Z,2
2018-12-18T16:57:36.752Z,2
2018-12-18T17:00:31.321Z,2
2018-12-18T17:03:32.064Z,2
2018-12-18T17:06:32.001Z,2
2018-12-18T17:09:32.031Z,2
2018-12-18T17:12:31.668Z,2
2018-12-18T17:15:31.265Z,2
2018-12-18T17:18:31.955Z,2
2018-12-18T17:21:31.289Z,2
2018-12-18T17:24:32.010Z,2
2018-12-18T17:27:31.670Z,2
2018-12-18T17:30:32.500Z,2
2018-12-18T17:33:32.254Z,2
2018-12-18T17:36:32.028Z,2
2018-12-18T17:39:31.852Z,2
2018-12-18T17:42:31.499Z,2
2018-12-18T17:45:37.796Z,2
2018-12-18T17:48:31.342Z,2
2018-12-18T17:51:32.691Z,2
2018-12-18T17:54:32.188Z,2
2018-12-18T17:57:31.867Z,2
2018-12-18T18:00:31.882Z,2
2018-12-18T18:03:32.070Z,2
2018-12-18T18:06:31.869Z,2
2018-12-18T18:09:37.634Z,2
2018-12-18T18:12:38.042Z,2
2018-12-18T18:15:36.640Z,2
2018-12-18T18:18:37.610Z,2
2018-12-18T18:21:32.857Z,2
2018-12-18T18:24:31.171Z,2
2018-12-18T18:27:31.873Z,2
2018-12-18T18:30:31.351Z,2
2018-12-18T18:33:32.002Z,2
2018-12-18T18:36:31.652Z,2
2018-12-18T18:39:32.100Z,2
2018-12-18T18:42:31.865Z,2
2018-12-18T18:45:31.172Z,2
2018-12-18T18:48:31.706Z,2
2018-12-18T18:51:32.079Z,2
2018-12-18T18:54:36.346Z,2
2018-12-18T18:57:32.080Z,2
2018-12-18T19:00:37.012Z,2
2018-12-18T19:03:31.560Z,2
2018-12-18T19:06:32.269Z,2
2018-12-18T19:09:37.484Z,2
2018-12-18T19:12:32.197Z,2
2018-12-18T19:15:36.479Z,2
2018-12-18T19:18:32.311Z,2
2018-12-18T19:21:41.101Z,2
2018-12-18T19:24:31.777Z,2
2018-12-18T19:27:31.609Z,2
2018-12-18T19:30:32.282Z,2
2018-12-18T19:33:36.834Z,2
2018-12-18T19:36:31.614Z,2
2018-12-18T19:39:32.510Z,2
2018-12-18T19:42:32.339Z,2
2018-12-18T19:45:34.496Z,2
2018-12-18T19:48:32.269Z,2
2018-12-18T19:51:33.057Z,2
2018-12-18T19:54:32.213Z,2
2018-12-18T19:57:32.010Z,2
2018-12-18T20:00:31.612Z,2
2018-12-18T20:03:32.334Z,2
2018-12-18T20:06:31.827Z,2
2018-12-18T20:09:31.109Z,2
2018-12-18T20:12:32.287Z,2
2018-12-18T20:15:32.150Z,2
2018-12-18T20:18:32.241Z,2
2018-12-18T20:27:19.832Z,2
2018-12-18T20:30:12.650Z,2
2018-12-18T20:33:13.726Z,2
2018-12-18T20:36:13.784Z,2
2018-12-18T20:36:35.694Z,2
2018-12-18T20:39:31.392Z,2
2018-12-18T20:42:31.069Z,2
2018-12-18T20:45:30.924Z,2
2018-12-18T20:48:30.865Z,2
2018-12-18T20:51:30.438Z,2
2018-12-18T20:54:31.101Z,2
2018-12-18T20:57:30.879Z,2
2018-12-18T21:00:30.846Z,2
2018-12-18T21:03:30.738Z,2
2018-12-18T21:06:31.514Z,2
2018-12-18T21:09:31.220Z,2
2018-12-18T21:12:31.118Z,2
2018-12-18T21:15:30.954Z,2
2018-12-18T21:18:30.824Z,2
2018-12-18T21:21:31.294Z,2
2018-12-18T21:24:31.049Z,2
2018-12-18T21:27:30.690Z,2
2018-12-18T21:30:31.382Z,2
2018-12-18T21:33:30.903Z,2
2018-12-18T21:36:30.602Z,2
2018-12-18T21:39:31.363Z,2
2018-12-18T21:42:30.806Z,2
2018-12-18T21:45:30.615Z,2
2018-12-18T21:48:31.318Z,2
2018-12-18T21:51:30.963Z,2
2018-12-18T21:54:30.613Z,2
2018-12-18T21:57:31.162Z,2
2018-12-18T22:00:31.005Z,2
2018-12-18T22:03:30.719Z,2
2018-12-18T22:06:31.356Z,2
2018-12-18T22:09:31.125Z,2
2018-12-18T22:12:30.877Z,2
2018-12-18T22:15:30.623Z,2
2018-12-18T22:18:31.576Z,2
2018-12-18T22:21:31.454Z,2
2018-12-18T22:24:31.213Z,2
2018-12-18T22:27:30.791Z,2
2018-12-18T22:30:30.659Z,2
2018-12-18T22:33:31.366Z,2
2018-12-18T22:36:31.122Z,2
2018-12-18T22:39:30.723Z,0
2018-12-18T22:42:31.193Z,0
2018-12-18T22:45:30.994Z,0
2018-12-18T22:48:30.829Z,0
2018-12-18T22:51:30.702Z,0
2018-12-18T22:54:31.412Z,0
2018-12-18T22:57:31.127Z,0
2018-12-18T23:02:42.275Z,0
2018-12-18T23:03:31.063Z,0
2018-12-18T23:06:31.363Z,0
2018-12-18T23:09:31.059Z,0
2018-12-18T23:12:31.001Z,0
2018-12-18T23:15:30.657Z,0
2018-12-18T23:18:31.700Z,0
2018-12-18T23:21:31.273Z,0
2018-12-18T23:24:31.054Z,0
2018-12-18T23:27:30.492Z,0
2018-12-18T23:30:31.296Z,0
2018-12-18T23:33:31.091Z,0
2018-12-18T23:36:21.637Z,0
2018-12-18T23:39:31.322Z,0
2018-12-18T23:42:31.037Z,0
2018-12-18T23:45:30.395Z,0
2018-12-18T23:48:30.924Z,0
2018-12-18T23:51:30.508Z,0
2018-12-18T23:54:30.994Z,0
2018-12-18T23:57:30.557Z,0
